sensor_id;sensor_type;location;lat;lon;timestamp;P1;durP1;ratioP1;P2;durP2;ratioP2
22250;SDS011;59348;52.158;5.588;2023-02-27T00:01:11;7.65;;;2.42;;
22250;SDS011;59348;52.158;5.588;2023-02-27T00:03:39;5.07;;;2.30;;
22250;SDS011;59348;52.158;5.588;2023-02-27T00:06:07;6.22;;;2.60;;
22250;SDS011;59348;52.158;5.588;2023-02-27T00:08:34;5.35;;;2.60;;
22250;SDS011;59348;52.158;5.588;2023-02-27T00:11:02;6.75;;;2.60;;
22250;SDS011;59348;52.158;5.588;2023-02-27T00:13:29;7.45;;;2.80;;
22250;SDS011;59348;52.158;5.588;2023-02-27T00:15:56;8.55;;;2.75;;
22250;SDS011;59348;52.158;5.588;2023-02-27T00:18:24;4.55;;;2.53;;
22250;SDS011;59348;52.158;5.588;2023-02-27T00:20:51;6.63;;;2.58;;
22250;SDS011;59348;52.158;5.588;2023-02-27T00:23:19;5.75;;;2.40;;
22250;SDS011;59348;52.158;5.588;2023-02-27T00:25:47;4.53;;;2.83;;
22250;SDS011;59348;52.158;5.588;2023-02-27T00:28:15;7.47;;;2.50;;
22250;SDS011;59348;52.158;5.588;2023-02-27T00:30:42;5.38;;;2.65;;
22250;SDS011;59348;52.158;5.588;2023-02-27T00:33:09;7.97;;;2.88;;
22250;SDS011;59348;52.158;5.588;2023-02-27T00:35:36;10.27;;;2.47;;
22250;SDS011;59348;52.158;5.588;2023-02-27T00:38:05;5.15;;;2.60;;
22250;SDS011;59348;52.158;5.588;2023-02-27T00:40:33;6.38;;;2.53;;
22250;SDS011;59348;52.158;5.588;2023-02-27T00:43:01;4.95;;;2.47;;
22250;SDS011;59348;52.158;5.588;2023-02-27T00:45:28;8.70;;;2.65;;
22250;SDS011;59348;52.158;5.588;2023-02-27T00:47:55;6.28;;;2.42;;
22250;SDS011;59348;52.158;5.588;2023-02-27T00:50:23;8.40;;;2.78;;
22250;SDS011;59348;52.158;5.588;2023-02-27T00:52:50;6.60;;;2.53;;
22250;SDS011;59348;52.158;5.588;2023-02-27T00:55:17;6.75;;;2.55;;
22250;SDS011;59348;52.158;5.588;2023-02-27T00:57:46;7.22;;;2.42;;
22250;SDS011;59348;52.158;5.588;2023-02-27T01:00:13;6.25;;;3.13;;
22250;SDS011;59348;52.158;5.588;2023-02-27T01:02:41;5.20;;;2.22;;
22250;SDS011;59348;52.158;5.588;2023-02-27T01:05:08;7.45;;;2.38;;
22250;SDS011;59348;52.158;5.588;2023-02-27T01:07:36;6.75;;;2.40;;
22250;SDS011;59348;52.158;5.588;2023-02-27T01:10:03;6.35;;;2.50;;
22250;SDS011;59348;52.158;5.588;2023-02-27T01:12:31;5.55;;;2.50;;
22250;SDS011;59348;52.158;5.588;2023-02-27T01:14:59;12.85;;;2.63;;
22250;SDS011;59348;52.158;5.588;2023-02-27T01:17:26;6.30;;;2.00;;
22250;SDS011;59348;52.158;5.588;2023-02-27T01:19:54;6.43;;;2.40;;
22250;SDS011;59348;52.158;5.588;2023-02-27T01:22:21;12.90;;;2.92;;
22250;SDS011;59348;52.158;5.588;2023-02-27T01:24:48;9.70;;;2.50;;
22250;SDS011;59348;52.158;5.588;2023-02-27T01:27:15;8.50;;;2.80;;
22250;SDS011;59348;52.158;5.588;2023-02-27T01:29:43;7.72;;;2.50;;
22250;SDS011;59348;52.158;5.588;2023-02-27T01:32:11;6.20;;;2.40;;
22250;SDS011;59348;52.158;5.588;2023-02-27T01:34:39;5.80;;;2.20;;
22250;SDS011;59348;52.158;5.588;2023-02-27T01:37:06;5.05;;;2.28;;
22250;SDS011;59348;52.158;5.588;2023-02-27T01:39:33;7.50;;;2.40;;
22250;SDS011;59348;52.158;5.588;2023-02-27T01:42:01;3.85;;;2.20;;
22250;SDS011;59348;52.158;5.588;2023-02-27T01:44:29;6.47;;;2.25;;
22250;SDS011;59348;52.158;5.588;2023-02-27T01:46:57;5.30;;;1.83;;
22250;SDS011;59348;52.158;5.588;2023-02-27T01:49:26;9.85;;;2.25;;
22250;SDS011;59348;52.158;5.588;2023-02-27T01:51:55;5.60;;;2.10;;
22250;SDS011;59348;52.158;5.588;2023-02-27T01:54:26;6.13;;;2.22;;
22250;SDS011;59348;52.158;5.588;2023-02-27T01:56:53;7.07;;;2.20;;
22250;SDS011;59348;52.158;5.588;2023-02-27T01:59:21;4.15;;;2.20;;
22250;SDS011;59348;52.158;5.588;2023-02-27T02:01:49;6.20;;;2.17;;
22250;SDS011;59348;52.158;5.588;2023-02-27T02:04:18;6.85;;;2.38;;
22250;SDS011;59348;52.158;5.588;2023-02-27T02:06:51;5.10;;;2.17;;
22250;SDS011;59348;52.158;5.588;2023-02-27T02:09:20;4.88;;;1.80;;
22250;SDS011;59348;52.158;5.588;2023-02-27T02:11:47;5.90;;;2.33;;
22250;SDS011;59348;52.158;5.588;2023-02-27T02:14:14;5.45;;;2.13;;
22250;SDS011;59348;52.158;5.588;2023-02-27T02:16:47;4.65;;;2.15;;
22250;SDS011;59348;52.158;5.588;2023-02-27T02:19:33;6.10;;;2.10;;
22250;SDS011;59348;52.158;5.588;2023-02-27T02:22:12;5.30;;;2.33;;
22250;SDS011;59348;52.158;5.588;2023-02-27T02:27:29;7.28;;;2.10;;
22250;SDS011;59348;52.158;5.588;2023-02-27T02:32:46;7.18;;;2.30;;
22250;SDS011;59348;52.158;5.588;2023-02-27T02:35:23;4.75;;;2.20;;
22250;SDS011;59348;52.158;5.588;2023-02-27T02:40:36;7.82;;;2.30;;
22250;SDS011;59348;52.158;5.588;2023-02-27T02:43:05;7.40;;;2.45;;
22250;SDS011;59348;52.158;5.588;2023-02-27T02:45:36;6.13;;;2.22;;
22250;SDS011;59348;52.158;5.588;2023-02-27T02:48:08;7.20;;;2.53;;
22250;SDS011;59348;52.158;5.588;2023-02-27T02:50:39;7.97;;;2.60;;
22250;SDS011;59348;52.158;5.588;2023-02-27T02:53:08;9.30;;;2.42;;
22250;SDS011;59348;52.158;5.588;2023-02-27T02:55:41;4.68;;;2.00;;
22250;SDS011;59348;52.158;5.588;2023-02-27T02:58:11;6.55;;;2.33;;
22250;SDS011;59348;52.158;5.588;2023-02-27T03:00:42;4.57;;;2.00;;
22250;SDS011;59348;52.158;5.588;2023-02-27T03:03:14;6.22;;;2.20;;
22250;SDS011;59348;52.158;5.588;2023-02-27T03:05:45;6.97;;;2.65;;
22250;SDS011;59348;52.158;5.588;2023-02-27T03:08:15;5.47;;;2.20;;
22250;SDS011;59348;52.158;5.588;2023-02-27T03:10:46;5.68;;;2.40;;
22250;SDS011;59348;52.158;5.588;2023-02-27T03:13:16;5.95;;;2.17;;
22250;SDS011;59348;52.158;5.588;2023-02-27T03:15:46;7.95;;;2.30;;
22250;SDS011;59348;52.158;5.588;2023-02-27T03:18:15;4.82;;;1.95;;
22250;SDS011;59348;52.158;5.588;2023-02-27T03:20:46;8.15;;;2.28;;
22250;SDS011;59348;52.158;5.588;2023-02-27T03:23:15;4.72;;;2.03;;
22250;SDS011;59348;52.158;5.588;2023-02-27T03:25:43;7.20;;;2.38;;
22250;SDS011;59348;52.158;5.588;2023-02-27T03:28:14;10.32;;;2.15;;
22250;SDS011;59348;52.158;5.588;2023-02-27T03:30:43;5.55;;;2.25;;
22250;SDS011;59348;52.158;5.588;2023-02-27T03:33:11;10.82;;;2.47;;
22250;SDS011;59348;52.158;5.588;2023-02-27T03:35:42;6.60;;;2.38;;
22250;SDS011;59348;52.158;5.588;2023-02-27T03:38:13;4.80;;;1.80;;
22250;SDS011;59348;52.158;5.588;2023-02-27T03:40:44;7.18;;;2.13;;
22250;SDS011;59348;52.158;5.588;2023-02-27T03:43:18;8.00;;;2.25;;
22250;SDS011;59348;52.158;5.588;2023-02-27T03:45:50;5.53;;;2.30;;
22250;SDS011;59348;52.158;5.588;2023-02-27T03:48:20;7.88;;;2.20;;
22250;SDS011;59348;52.158;5.588;2023-02-27T03:50:47;10.20;;;2.55;;
22250;SDS011;59348;52.158;5.588;2023-02-27T03:53:16;5.35;;;2.10;;
22250;SDS011;59348;52.158;5.588;2023-02-27T03:55:45;7.13;;;2.10;;
22250;SDS011;59348;52.158;5.588;2023-02-27T03:58:13;8.18;;;2.35;;
22250;SDS011;59348;52.158;5.588;2023-02-27T04:00:42;5.10;;;2.10;;
22250;SDS011;59348;52.158;5.588;2023-02-27T04:03:09;8.40;;;2.35;;
22250;SDS011;59348;52.158;5.588;2023-02-27T04:05:37;7.88;;;2.20;;
22250;SDS011;59348;52.158;5.588;2023-02-27T04:08:12;5.72;;;2.13;;
22250;SDS011;59348;52.158;5.588;2023-02-27T04:10:43;6.35;;;2.00;;
22250;SDS011;59348;52.158;5.588;2023-02-27T04:13:19;4.28;;;1.85;;
22250;SDS011;59348;52.158;5.588;2023-02-27T04:16:04;8.27;;;2.30;;
22250;SDS011;59348;52.158;5.588;2023-02-27T04:18:50;9.40;;;2.00;;
22250;SDS011;59348;52.158;5.588;2023-02-27T04:21:20;5.03;;;1.77;;
22250;SDS011;59348;52.158;5.588;2023-02-27T04:23:51;3.83;;;1.75;;
22250;SDS011;59348;52.158;5.588;2023-02-27T04:26:22;6.05;;;1.95;;
22250;SDS011;59348;52.158;5.588;2023-02-27T04:28:56;3.85;;;1.83;;
22250;SDS011;59348;52.158;5.588;2023-02-27T04:31:28;5.88;;;2.10;;
22250;SDS011;59348;52.158;5.588;2023-02-27T04:33:57;7.05;;;2.25;;
22250;SDS011;59348;52.158;5.588;2023-02-27T04:36:27;4.13;;;1.70;;
22250;SDS011;59348;52.158;5.588;2023-02-27T04:38:59;5.20;;;2.13;;
22250;SDS011;59348;52.158;5.588;2023-02-27T04:41:29;4.07;;;1.63;;
22250;SDS011;59348;52.158;5.588;2023-02-27T04:43:58;6.55;;;1.92;;
22250;SDS011;59348;52.158;5.588;2023-02-27T04:46:27;4.82;;;1.90;;
22250;SDS011;59348;52.158;5.588;2023-02-27T04:48:57;6.18;;;2.17;;
22250;SDS011;59348;52.158;5.588;2023-02-27T04:51:25;7.30;;;2.10;;
22250;SDS011;59348;52.158;5.588;2023-02-27T04:53:55;5.35;;;2.00;;
22250;SDS011;59348;52.158;5.588;2023-02-27T04:56:26;4.32;;;1.73;;
22250;SDS011;59348;52.158;5.588;2023-02-27T04:58:55;5.05;;;2.15;;
22250;SDS011;59348;52.158;5.588;2023-02-27T05:01:26;7.03;;;2.00;;
22250;SDS011;59348;52.158;5.588;2023-02-27T05:03:57;5.43;;;2.10;;
22250;SDS011;59348;52.158;5.588;2023-02-27T05:06:26;6.28;;;1.95;;
22250;SDS011;59348;52.158;5.588;2023-02-27T05:08:55;5.47;;;2.08;;
22250;SDS011;59348;52.158;5.588;2023-02-27T05:11:25;6.32;;;2.17;;
22250;SDS011;59348;52.158;5.588;2023-02-27T05:13:55;7.50;;;1.88;;
22250;SDS011;59348;52.158;5.588;2023-02-27T05:16:24;7.03;;;2.20;;
22250;SDS011;59348;52.158;5.588;2023-02-27T05:18:58;7.50;;;2.55;;
22250;SDS011;59348;52.158;5.588;2023-02-27T05:21:28;6.28;;;2.70;;
22250;SDS011;59348;52.158;5.588;2023-02-27T05:24:02;6.40;;;3.17;;
22250;SDS011;59348;52.158;5.588;2023-02-27T05:26:36;6.13;;;2.50;;
22250;SDS011;59348;52.158;5.588;2023-02-27T05:29:08;4.72;;;2.53;;
22250;SDS011;59348;52.158;5.588;2023-02-27T05:31:40;6.85;;;3.22;;
22250;SDS011;59348;52.158;5.588;2023-02-27T05:34:11;8.68;;;3.50;;
22250;SDS011;59348;52.158;5.588;2023-02-27T05:36:41;8.65;;;3.20;;
22250;SDS011;59348;52.158;5.588;2023-02-27T05:39:09;6.53;;;3.20;;
22250;SDS011;59348;52.158;5.588;2023-02-27T05:41:38;7.95;;;3.42;;
22250;SDS011;59348;52.158;5.588;2023-02-27T05:44:07;10.75;;;3.90;;
22250;SDS011;59348;52.158;5.588;2023-02-27T05:46:36;11.93;;;4.43;;
22250;SDS011;59348;52.158;5.588;2023-02-27T05:49:06;12.50;;;5.68;;
22250;SDS011;59348;52.158;5.588;2023-02-27T05:51:36;14.68;;;5.15;;
22250;SDS011;59348;52.158;5.588;2023-02-27T05:54:06;12.52;;;5.10;;
22250;SDS011;59348;52.158;5.588;2023-02-27T05:56:36;14.57;;;4.63;;
22250;SDS011;59348;52.158;5.588;2023-02-27T05:59:05;11.63;;;4.28;;
22250;SDS011;59348;52.158;5.588;2023-02-27T06:01:34;7.40;;;3.83;;
22250;SDS011;59348;52.158;5.588;2023-02-27T06:04:01;12.55;;;4.18;;
22250;SDS011;59348;52.158;5.588;2023-02-27T06:06:28;8.93;;;4.20;;
22250;SDS011;59348;52.158;5.588;2023-02-27T06:08:57;15.73;;;3.80;;
22250;SDS011;59348;52.158;5.588;2023-02-27T06:11:24;8.00;;;3.28;;
22250;SDS011;59348;52.158;5.588;2023-02-27T06:13:52;7.53;;;3.15;;
22250;SDS011;59348;52.158;5.588;2023-02-27T06:16:20;8.13;;;3.20;;
22250;SDS011;59348;52.158;5.588;2023-02-27T06:18:47;10.95;;;4.43;;
22250;SDS011;59348;52.158;5.588;2023-02-27T06:21:14;10.90;;;4.53;;
22250;SDS011;59348;52.158;5.588;2023-02-27T06:23:42;10.65;;;3.78;;
22250;SDS011;59348;52.158;5.588;2023-02-27T06:26:10;13.55;;;3.67;;
22250;SDS011;59348;52.158;5.588;2023-02-27T06:28:38;8.35;;;3.05;;
22250;SDS011;59348;52.158;5.588;2023-02-27T06:31:06;10.70;;;2.97;;
22250;SDS011;59348;52.158;5.588;2023-02-27T06:33:33;9.20;;;3.10;;
22250;SDS011;59348;52.158;5.588;2023-02-27T06:36:01;11.45;;;3.60;;
22250;SDS011;59348;52.158;5.588;2023-02-27T06:38:28;14.10;;;4.40;;
22250;SDS011;59348;52.158;5.588;2023-02-27T06:40:55;10.38;;;4.13;;
22250;SDS011;59348;52.158;5.588;2023-02-27T06:43:24;11.82;;;4.53;;
22250;SDS011;59348;52.158;5.588;2023-02-27T06:45:52;12.93;;;4.68;;
22250;SDS011;59348;52.158;5.588;2023-02-27T06:48:19;9.23;;;4.00;;
22250;SDS011;59348;52.158;5.588;2023-02-27T06:50:49;8.75;;;4.10;;
22250;SDS011;59348;52.158;5.588;2023-02-27T06:53:17;13.95;;;4.00;;
22250;SDS011;59348;52.158;5.588;2023-02-27T06:55:44;10.25;;;4.25;;
22250;SDS011;59348;52.158;5.588;2023-02-27T06:58:11;9.55;;;3.92;;
22250;SDS011;59348;52.158;5.588;2023-02-27T07:00:40;8.38;;;3.83;;
22250;SDS011;59348;52.158;5.588;2023-02-27T07:03:07;9.45;;;3.65;;
22250;SDS011;59348;52.158;5.588;2023-02-27T07:05:35;8.32;;;3.40;;
22250;SDS011;59348;52.158;5.588;2023-02-27T07:08:02;13.48;;;4.03;;
22250;SDS011;59348;52.158;5.588;2023-02-27T07:10:30;10.98;;;3.67;;
22250;SDS011;59348;52.158;5.588;2023-02-27T07:12:57;9.10;;;3.67;;
22250;SDS011;59348;52.158;5.588;2023-02-27T07:15:24;9.50;;;3.60;;
22250;SDS011;59348;52.158;5.588;2023-02-27T07:17:53;10.40;;;3.50;;
22250;SDS011;59348;52.158;5.588;2023-02-27T07:20:20;11.93;;;4.10;;
22250;SDS011;59348;52.158;5.588;2023-02-27T07:22:47;12.07;;;3.92;;
22250;SDS011;59348;52.158;5.588;2023-02-27T07:25:15;11.55;;;3.65;;
22250;SDS011;59348;52.158;5.588;2023-02-27T07:27:42;10.00;;;3.60;;
22250;SDS011;59348;52.158;5.588;2023-02-27T07:30:10;7.05;;;3.53;;
22250;SDS011;59348;52.158;5.588;2023-02-27T07:32:38;13.82;;;3.60;;
22250;SDS011;59348;52.158;5.588;2023-02-27T07:35:08;6.22;;;2.95;;
22250;SDS011;59348;52.158;5.588;2023-02-27T07:37:36;6.70;;;3.25;;
22250;SDS011;59348;52.158;5.588;2023-02-27T07:40:03;8.15;;;3.47;;
22250;SDS011;59348;52.158;5.588;2023-02-27T07:42:31;9.43;;;3.20;;
22250;SDS011;59348;52.158;5.588;2023-02-27T07:44:59;7.78;;;3.20;;
22250;SDS011;59348;52.158;5.588;2023-02-27T07:47:26;7.43;;;3.15;;
22250;SDS011;59348;52.158;5.588;2023-02-27T07:49:55;7.95;;;3.00;;
22250;SDS011;59348;52.158;5.588;2023-02-27T07:52:24;9.60;;;2.92;;
22250;SDS011;59348;52.158;5.588;2023-02-27T07:54:51;12.93;;;3.20;;
22250;SDS011;59348;52.158;5.588;2023-02-27T07:57:18;12.65;;;5.00;;
22250;SDS011;59348;52.158;5.588;2023-02-27T07:59:46;18.27;;;7.28;;
22250;SDS011;59348;52.158;5.588;2023-02-27T08:02:13;48.58;;;15.88;;
22250;SDS011;59348;52.158;5.588;2023-02-27T08:04:40;44.65;;;16.13;;
22250;SDS011;59348;52.158;5.588;2023-02-27T08:07:08;15.18;;;5.53;;
22250;SDS011;59348;52.158;5.588;2023-02-27T08:09:36;12.18;;;4.60;;
22250;SDS011;59348;52.158;5.588;2023-02-27T08:12:04;14.15;;;4.10;;
22250;SDS011;59348;52.158;5.588;2023-02-27T08:14:31;8.77;;;2.85;;
22250;SDS011;59348;52.158;5.588;2023-02-27T08:16:58;7.22;;;2.40;;
22250;SDS011;59348;52.158;5.588;2023-02-27T08:19:26;7.82;;;2.70;;
22250;SDS011;59348;52.158;5.588;2023-02-27T08:21:53;10.10;;;2.60;;
22250;SDS011;59348;52.158;5.588;2023-02-27T08:24:20;7.07;;;2.60;;
22250;SDS011;59348;52.158;5.588;2023-02-27T08:26:49;6.03;;;2.35;;
22250;SDS011;59348;52.158;5.588;2023-02-27T08:29:16;12.20;;;2.78;;
22250;SDS011;59348;52.158;5.588;2023-02-27T08:31:44;11.95;;;2.60;;
22250;SDS011;59348;52.158;5.588;2023-02-27T08:34:12;5.60;;;2.45;;
22250;SDS011;59348;52.158;5.588;2023-02-27T08:36:39;5.90;;;2.42;;
22250;SDS011;59348;52.158;5.588;2023-02-27T08:39:06;17.45;;;2.97;;
22250;SDS011;59348;52.158;5.588;2023-02-27T08:41:34;8.00;;;2.50;;
22250;SDS011;59348;52.158;5.588;2023-02-27T08:44:03;10.20;;;2.63;;
22250;SDS011;59348;52.158;5.588;2023-02-27T08:46:31;6.88;;;2.38;;
22250;SDS011;59348;52.158;5.588;2023-02-27T08:48:58;10.45;;;2.67;;
22250;SDS011;59348;52.158;5.588;2023-02-27T08:51:25;12.48;;;2.53;;
22250;SDS011;59348;52.158;5.588;2023-02-27T08:53:53;5.97;;;2.45;;
22250;SDS011;59348;52.158;5.588;2023-02-27T08:56:23;6.97;;;3.00;;
22250;SDS011;59348;52.158;5.588;2023-02-27T08:58:51;6.80;;;2.70;;
22250;SDS011;59348;52.158;5.588;2023-02-27T09:01:19;6.82;;;2.42;;
22250;SDS011;59348;52.158;5.588;2023-02-27T09:03:46;7.13;;;2.50;;
22250;SDS011;59348;52.158;5.588;2023-02-27T09:06:14;8.23;;;1.98;;
22250;SDS011;59348;52.158;5.588;2023-02-27T09:08:41;9.07;;;2.25;;
22250;SDS011;59348;52.158;5.588;2023-02-27T09:11:08;5.85;;;2.00;;
22250;SDS011;59348;52.158;5.588;2023-02-27T09:13:36;7.07;;;2.10;;
22250;SDS011;59348;52.158;5.588;2023-02-27T09:16:03;6.88;;;2.45;;
22250;SDS011;59348;52.158;5.588;2023-02-27T09:18:32;5.57;;;2.28;;
22250;SDS011;59348;52.158;5.588;2023-02-27T09:20:59;4.20;;;1.70;;
22250;SDS011;59348;52.158;5.588;2023-02-27T09:23:27;7.05;;;2.20;;
22250;SDS011;59348;52.158;5.588;2023-02-27T09:25:54;7.43;;;2.05;;
22250;SDS011;59348;52.158;5.588;2023-02-27T09:28:22;5.43;;;1.73;;
22250;SDS011;59348;52.158;5.588;2023-02-27T09:30:49;6.32;;;1.67;;
22250;SDS011;59348;52.158;5.588;2023-02-27T09:33:17;4.30;;;1.38;;
22250;SDS011;59348;52.158;5.588;2023-02-27T09:35:45;6.20;;;1.48;;
22250;SDS011;59348;52.158;5.588;2023-02-27T09:38:12;6.50;;;1.20;;
22250;SDS011;59348;52.158;5.588;2023-02-27T09:40:40;4.53;;;1.15;;
22250;SDS011;59348;52.158;5.588;2023-02-27T09:43:08;2.58;;;0.98;;
22250;SDS011;59348;52.158;5.588;2023-02-27T09:45:38;6.30;;;1.08;;
22250;SDS011;59348;52.158;5.588;2023-02-27T09:48:07;4.75;;;1.08;;
22250;SDS011;59348;52.158;5.588;2023-02-27T09:50:38;3.55;;;1.13;;
22250;SDS011;59348;52.158;5.588;2023-02-27T09:55:53;2.17;;;1.00;;
22250;SDS011;59348;52.158;5.588;2023-02-27T09:58:25;4.13;;;1.05;;
22250;SDS011;59348;52.158;5.588;2023-02-27T10:00:56;3.83;;;1.10;;
22250;SDS011;59348;52.158;5.588;2023-02-27T10:03:34;4.15;;;0.93;;
22250;SDS011;59348;52.158;5.588;2023-02-27T10:06:11;6.68;;;1.10;;
22250;SDS011;59348;52.158;5.588;2023-02-27T10:08:42;3.60;;;0.90;;
22250;SDS011;59348;52.158;5.588;2023-02-27T10:11:12;3.28;;;0.98;;
22250;SDS011;59348;52.158;5.588;2023-02-27T10:13:46;4.13;;;1.00;;
22250;SDS011;59348;52.158;5.588;2023-02-27T10:16:17;5.70;;;1.27;;
22250;SDS011;59348;52.158;5.588;2023-02-27T10:18:47;4.75;;;0.85;;
22250;SDS011;59348;52.158;5.588;2023-02-27T10:21:17;4.72;;;1.00;;
22250;SDS011;59348;52.158;5.588;2023-02-27T10:23:48;1.88;;;1.10;;
22250;SDS011;59348;52.158;5.588;2023-02-27T10:26:19;4.47;;;0.80;;
22250;SDS011;59348;52.158;5.588;2023-02-27T10:28:47;5.32;;;0.77;;
22250;SDS011;59348;52.158;5.588;2023-02-27T10:31:15;3.95;;;0.90;;
22250;SDS011;59348;52.158;5.588;2023-02-27T10:33:44;3.35;;;0.70;;
22250;SDS011;59348;52.158;5.588;2023-02-27T10:36:13;2.55;;;0.68;;
22250;SDS011;59348;52.158;5.588;2023-02-27T10:38:42;1.48;;;0.55;;
22250;SDS011;59348;52.158;5.588;2023-02-27T10:41:10;1.48;;;0.80;;
22250;SDS011;59348;52.158;5.588;2023-02-27T10:43:40;3.10;;;0.80;;
22250;SDS011;59348;52.158;5.588;2023-02-27T10:46:10;1.95;;;0.63;;
22250;SDS011;59348;52.158;5.588;2023-02-27T10:48:38;2.50;;;0.73;;
22250;SDS011;59348;52.158;5.588;2023-02-27T10:51:18;2.15;;;0.73;;
22250;SDS011;59348;52.158;5.588;2023-02-27T10:53:46;2.67;;;0.80;;
22250;SDS011;59348;52.158;5.588;2023-02-27T10:56:14;3.38;;;0.80;;
22250;SDS011;59348;52.158;5.588;2023-02-27T10:58:43;1.05;;;0.60;;
22250;SDS011;59348;52.158;5.588;2023-02-27T11:01:11;3.65;;;0.65;;
22250;SDS011;59348;52.158;5.588;2023-02-27T11:03:39;2.50;;;0.70;;
22250;SDS011;59348;52.158;5.588;2023-02-27T11:06:08;1.52;;;0.63;;
22250;SDS011;59348;52.158;5.588;2023-02-27T11:08:35;1.10;;;0.55;;
22250;SDS011;59348;52.158;5.588;2023-02-27T11:11:05;1.73;;;0.70;;
22250;SDS011;59348;52.158;5.588;2023-02-27T11:13:34;1.75;;;0.60;;
22250;SDS011;59348;52.158;5.588;2023-02-27T11:16:05;1.80;;;0.47;;
22250;SDS011;59348;52.158;5.588;2023-02-27T11:18:33;1.25;;;0.38;;
22250;SDS011;59348;52.158;5.588;2023-02-27T11:21:08;1.20;;;0.50;;
22250;SDS011;59348;52.158;5.588;2023-02-27T11:23:35;1.88;;;0.70;;
22250;SDS011;59348;52.158;5.588;2023-02-27T11:26:08;2.53;;;0.68;;
22250;SDS011;59348;52.158;5.588;2023-02-27T11:28:35;1.98;;;0.63;;
22250;SDS011;59348;52.158;5.588;2023-02-27T11:31:03;1.75;;;0.70;;
22250;SDS011;59348;52.158;5.588;2023-02-27T11:33:34;2.83;;;1.00;;
22250;SDS011;59348;52.158;5.588;2023-02-27T11:36:02;1.13;;;0.40;;
22250;SDS011;59348;52.158;5.588;2023-02-27T11:38:30;1.27;;;0.50;;
22250;SDS011;59348;52.158;5.588;2023-02-27T11:40:59;1.33;;;0.55;;
22250;SDS011;59348;52.158;5.588;2023-02-27T11:43:28;1.25;;;0.43;;
22250;SDS011;59348;52.158;5.588;2023-02-27T11:45:57;1.80;;;0.60;;
22250;SDS011;59348;52.158;5.588;2023-02-27T11:48:27;3.10;;;0.50;;
22250;SDS011;59348;52.158;5.588;2023-02-27T11:51:03;2.08;;;0.50;;
22250;SDS011;59348;52.158;5.588;2023-02-27T11:56:14;1.48;;;0.50;;
22250;SDS011;59348;52.158;5.588;2023-02-27T11:58:43;2.70;;;0.65;;
22250;SDS011;59348;52.158;5.588;2023-02-27T12:01:14;2.60;;;0.73;;
22250;SDS011;59348;52.158;5.588;2023-02-27T12:03:45;1.40;;;0.70;;
22250;SDS011;59348;52.158;5.588;2023-02-27T12:06:16;2.05;;;0.50;;
22250;SDS011;59348;52.158;5.588;2023-02-27T12:08:44;2.00;;;0.60;;
22250;SDS011;59348;52.158;5.588;2023-02-27T12:11:15;1.73;;;0.50;;
22250;SDS011;59348;52.158;5.588;2023-02-27T12:13:48;2.38;;;0.45;;
22250;SDS011;59348;52.158;5.588;2023-02-27T12:16:18;3.00;;;0.50;;
22250;SDS011;59348;52.158;5.588;2023-02-27T12:18:49;1.00;;;0.45;;
22250;SDS011;59348;52.158;5.588;2023-02-27T12:21:21;1.85;;;0.50;;
22250;SDS011;59348;52.158;5.588;2023-02-27T12:23:50;1.25;;;0.55;;
22250;SDS011;59348;52.158;5.588;2023-02-27T12:26:20;0.77;;;0.50;;
22250;SDS011;59348;52.158;5.588;2023-02-27T12:28:50;1.17;;;0.50;;
22250;SDS011;59348;52.158;5.588;2023-02-27T12:31:26;1.05;;;0.50;;
22250;SDS011;59348;52.158;5.588;2023-02-27T12:33:58;1.50;;;0.63;;
22250;SDS011;59348;52.158;5.588;2023-02-27T12:36:28;3.28;;;0.60;;
22250;SDS011;59348;52.158;5.588;2023-02-27T12:38:55;1.33;;;0.63;;
22250;SDS011;59348;52.158;5.588;2023-02-27T12:41:27;1.90;;;0.70;;
22250;SDS011;59348;52.158;5.588;2023-02-27T12:44:01;3.63;;;0.70;;
22250;SDS011;59348;52.158;5.588;2023-02-27T12:46:32;2.15;;;0.75;;
22250;SDS011;59348;52.158;5.588;2023-02-27T12:49:05;2.67;;;0.88;;
22250;SDS011;59348;52.158;5.588;2023-02-27T12:51:42;3.78;;;0.82;;
22250;SDS011;59348;52.158;5.588;2023-02-27T12:54:14;4.38;;;0.90;;
22250;SDS011;59348;52.158;5.588;2023-02-27T12:56:46;2.20;;;0.80;;
22250;SDS011;59348;52.158;5.588;2023-02-27T12:59:19;1.42;;;0.73;;
22250;SDS011;59348;52.158;5.588;2023-02-27T13:01:52;2.58;;;0.70;;
22250;SDS011;59348;52.158;5.588;2023-02-27T13:04:24;3.65;;;0.90;;
22250;SDS011;59348;52.158;5.588;2023-02-27T13:06:55;2.47;;;0.90;;
22250;SDS011;59348;52.158;5.588;2023-02-27T13:09:30;4.80;;;0.80;;
22250;SDS011;59348;52.158;5.588;2023-02-27T13:12:01;4.10;;;1.10;;
22250;SDS011;59348;52.158;5.588;2023-02-27T13:14:32;1.58;;;0.85;;
22250;SDS011;59348;52.158;5.588;2023-02-27T13:17:03;6.40;;;1.10;;
22250;SDS011;59348;52.158;5.588;2023-02-27T13:19:35;5.18;;;1.10;;
22250;SDS011;59348;52.158;5.588;2023-02-27T13:22:08;3.08;;;1.00;;
22250;SDS011;59348;52.158;5.588;2023-02-27T13:24:39;3.75;;;0.90;;
22250;SDS011;59348;52.158;5.588;2023-02-27T13:27:09;1.48;;;0.80;;
22250;SDS011;59348;52.158;5.588;2023-02-27T13:29:39;2.22;;;0.70;;
22250;SDS011;59348;52.158;5.588;2023-02-27T13:32:13;3.90;;;1.00;;
22250;SDS011;59348;52.158;5.588;2023-02-27T13:34:43;5.28;;;1.10;;
22250;SDS011;59348;52.158;5.588;2023-02-27T13:37:12;1.80;;;0.95;;
22250;SDS011;59348;52.158;5.588;2023-02-27T13:39:49;4.25;;;0.95;;
22250;SDS011;59348;52.158;5.588;2023-02-27T13:45:02;2.45;;;0.90;;
22250;SDS011;59348;52.158;5.588;2023-02-27T13:52:56;2.15;;;0.80;;
22250;SDS011;59348;52.158;5.588;2023-02-27T13:55:34;1.50;;;0.70;;
22250;SDS011;59348;52.158;5.588;2023-02-27T13:58:02;2.00;;;0.75;;
22250;SDS011;59348;52.158;5.588;2023-02-27T14:00:30;1.83;;;0.80;;
22250;SDS011;59348;52.158;5.588;2023-02-27T14:03:05;4.32;;;0.90;;
22250;SDS011;59348;52.158;5.588;2023-02-27T14:05:34;2.65;;;0.95;;
22250;SDS011;59348;52.158;5.588;2023-02-27T14:08:05;2.90;;;0.98;;
22250;SDS011;59348;52.158;5.588;2023-02-27T14:10:35;3.28;;;0.90;;
22250;SDS011;59348;52.158;5.588;2023-02-27T14:13:03;5.18;;;1.10;;
22250;SDS011;59348;52.158;5.588;2023-02-27T14:20:54;1.60;;;0.90;;
22250;SDS011;59348;52.158;5.588;2023-02-27T14:23:23;3.10;;;1.00;;
22250;SDS011;59348;52.158;5.588;2023-02-27T14:25:52;4.88;;;1.20;;
22250;SDS011;59348;52.158;5.588;2023-02-27T14:28:21;3.13;;;1.02;;
22250;SDS011;59348;52.158;5.588;2023-02-27T14:30:51;2.78;;;1.15;;
22250;SDS011;59348;52.158;5.588;2023-02-27T14:33:21;1.65;;;0.93;;
22250;SDS011;59348;52.158;5.588;2023-02-27T14:35:55;2.53;;;1.10;;
22250;SDS011;59348;52.158;5.588;2023-02-27T14:38:25;2.28;;;0.88;;
22250;SDS011;59348;52.158;5.588;2023-02-27T14:40:57;2.42;;;0.85;;
22250;SDS011;59348;52.158;5.588;2023-02-27T14:43:28;1.55;;;0.90;;
22250;SDS011;59348;52.158;5.588;2023-02-27T14:46:03;3.92;;;0.95;;
22250;SDS011;59348;52.158;5.588;2023-02-27T14:48:31;3.30;;;0.80;;
22250;SDS011;59348;52.158;5.588;2023-02-27T14:51:01;6.57;;;1.05;;
22250;SDS011;59348;52.158;5.588;2023-02-27T14:53:30;2.03;;;0.90;;
22250;SDS011;59348;52.158;5.588;2023-02-27T14:55:58;3.67;;;1.10;;
22250;SDS011;59348;52.158;5.588;2023-02-27T14:58:26;3.50;;;0.90;;
22250;SDS011;59348;52.158;5.588;2023-02-27T15:03:37;3.08;;;0.95;;
22250;SDS011;59348;52.158;5.588;2023-02-27T15:06:12;1.95;;;0.80;;
22250;SDS011;59348;52.158;5.588;2023-02-27T15:08:41;2.83;;;1.10;;
22250;SDS011;59348;52.158;5.588;2023-02-27T15:11:12;4.00;;;1.00;;
22250;SDS011;59348;52.158;5.588;2023-02-27T15:13:40;3.53;;;1.20;;
22250;SDS011;59348;52.158;5.588;2023-02-27T15:18:51;3.17;;;1.17;;
22250;SDS011;59348;52.158;5.588;2023-02-27T15:21:20;3.30;;;0.95;;
22250;SDS011;59348;52.158;5.588;2023-02-27T15:23:53;1.25;;;0.80;;
22250;SDS011;59348;52.158;5.588;2023-02-27T15:26:21;1.35;;;0.90;;
22250;SDS011;59348;52.158;5.588;2023-02-27T15:28:49;4.72;;;1.17;;
22250;SDS011;59348;52.158;5.588;2023-02-27T15:31:18;3.40;;;0.98;;